Time;durP1;ratioP1;P1;durP2;ratioP2;P2;SDS_P1;SDS_P2;PMS_P1;PMS_P2;Temp;Humidity;BMP_temperature;BMP_pressure;BME280_temperature;BME280_humidity;BME280_pressure;Samples;Min_cycle;Max_cycle;Signal;HPM_P1;HPM_P2
2021/11/25 00:00:07;;;;;;;57.65;25.38;;;7.80;99.90;;;;;;4954621;28;20055;-68
2021/11/25 00:02:33;;;;;;;63.45;25.75;;;7.70;99.90;;;;;;4953950;28;20066;-68
2021/11/25 00:04:59;;;;;;;56.47;25.73;;;7.70;99.90;;;;;;4952787;28;20452;-68
2021/11/25 00:07:24;;;;;;;65.65;28.10;;;7.70;99.90;;;;;;4954183;28;20069;-66
2021/11/25 00:09:51;;;;;;;54.58;24.98;;;7.70;99.90;;;;;;4953834;29;20050;-68
2021/11/25 00:12:16;;;;;;;66.70;28.02;;;7.70;99.90;;;;;;4953851;28;20018;-68
2021/11/25 00:14:43;;;;;;;60.15;25.02;;;7.70;99.90;;;;;;4953490;28;20016;-68
2021/11/25 00:17:09;;;;;;;60.17;26.88;;;7.80;99.90;;;;;;4953455;28;20032;-67
2021/11/25 00:19:34;;;;;;;58.30;25.08;;;7.70;99.90;;;;;;4953244;28;20023;-68
2021/11/25 00:22:00;;;;;;;59.08;23.90;;;7.70;99.90;;;;;;4953630;29;20064;-68
2021/11/25 00:24:26;;;;;;;57.80;26.33;;;7.70;99.90;;;;;;4953672;28;20019;-67
2021/11/25 00:26:52;;;;;;;58.30;25.40;;;7.70;99.90;;;;;;4953569;28;20054;-67
2021/11/25 00:29:18;;;;;;;55.30;23.95;;;7.70;99.90;;;;;;4953717;28;20046;-68
2021/11/25 00:31:43;;;;;;;59.15;24.95;;;7.70;99.90;;;;;;4949596;29;20027;-67
2021/11/25 00:34:09;;;;;;;60.65;26.52;;;7.70;99.90;;;;;;4953348;28;20306;-68
2021/11/25 00:36:34;;;;;;;56.00;25.38;;;7.70;99.90;;;;;;4953503;29;20027;-68
2021/11/25 00:39:00;;;;;;;53.97;25.08;;;7.70;99.90;;;;;;4953176;28;20024;-68
2021/11/25 00:41:25;;;;;;;59.00;25.35;;;7.60;99.90;;;;;;4953498;28;20015;-69
2021/11/25 00:43:51;;;;;;;53.40;25.77;;;7.70;99.90;;;;;;4952814;28;20038;-68
2021/11/25 00:46:16;;;;;;;59.30;26.80;;;7.70;99.90;;;;;;4952876;28;20034;-67
2021/11/25 00:48:42;;;;;;;52.03;22.48;;;7.60;99.90;;;;;;4953114;28;20134;-68
2021/11/25 00:51:07;;;;;;;53.95;25.60;;;7.60;99.90;;;;;;4953037;28;20043;-68
2021/11/25 00:53:33;;;;;;;55.30;23.40;;;7.60;99.90;;;;;;4953048;29;20027;-68
2021/11/25 00:55:59;;;;;;;62.83;25.75;;;7.70;99.90;;;;;;4952946;28;20035;-68
2021/11/25 00:58:24;;;;;;;53.15;24.10;;;7.70;99.90;;;;;;4953149;28;20023;-68
2021/11/25 01:00:50;;;;;;;51.88;23.30;;;7.60;99.90;;;;;;4952586;28;20020;-67
2021/11/25 01:03:16;;;;;;;56.85;26.08;;;7.60;99.90;;;;;;4952758;29;20022;-67
2021/11/25 01:05:41;;;;;;;59.13;25.33;;;7.60;99.90;;;;;;4953278;28;20027;-68
2021/11/25 01:08:07;;;;;;;56.67;23.63;;;7.70;99.90;;;;;;4949959;29;20042;-68
2021/11/25 01:10:33;;;;;;;57.30;25.63;;;7.60;99.90;;;;;;4950391;28;20495;-67
2021/11/25 01:12:59;;;;;;;58.53;24.77;;;7.70;99.90;;;;;;4951771;28;20035;-67
2021/11/25 01:15:31;;;;;;;62.88;25.10;;;7.60;99.90;;;;;;4953520;28;20027;-67
2021/11/25 01:17:59;;;;;;;61.05;26.23;;;7.60;99.90;;;;;;4953502;28;20023;-67
2021/11/25 01:20:25;;;;;;;64.40;27.33;;;7.60;99.90;;;;;;4950774;29;20023;-67
2021/11/25 01:22:52;;;;;;;65.32;27.95;;;7.50;99.90;;;;;;4953496;29;20055;-68
2021/11/25 01:25:17;;;;;;;64.80;26.23;;;7.50;99.90;;;;;;4953684;28;20117;-67
2021/11/25 01:27:43;;;;;;;67.05;25.95;;;7.50;99.90;;;;;;4951676;28;20079;-67
2021/11/25 01:30:10;;;;;;;65.68;24.88;;;7.50;99.90;;;;;;4945927;29;20512;-68
2021/11/25 01:32:36;;;;;;;62.78;25.98;;;7.50;99.90;;;;;;4951716;29;20020;-68
2021/11/25 01:35:03;;;;;;;68.82;30.15;;;7.50;99.90;;;;;;4953884;29;20023;-67
2021/11/25 01:37:28;;;;;;;69.65;28.02;;;7.50;99.90;;;;;;4953920;28;20023;-68
2021/11/25 01:39:55;;;;;;;67.30;26.70;;;7.40;99.90;;;;;;4953690;28;20384;-66
2021/11/25 01:42:21;;;;;;;70.07;27.85;;;7.40;99.90;;;;;;4953157;29;20106;-68
2021/11/25 01:44:47;;;;;;;63.65;26.85;;;7.50;99.90;;;;;;4953216;28;20031;-67
2021/11/25 01:47:13;;;;;;;61.25;27.05;;;7.40;99.90;;;;;;4953411;28;20031;-68
2021/11/25 01:49:38;;;;;;;66.00;27.50;;;7.40;99.90;;;;;;4968915;28;20031;-68
2021/11/25 01:52:04;;;;;;;62.30;28.08;;;7.40;99.90;;;;;;4950738;29;20094;-68
2021/11/25 01:54:30;;;;;;;65.63;26.92;;;7.30;99.90;;;;;;4955412;29;20027;-68
2021/11/25 01:56:56;;;;;;;66.47;26.90;;;7.40;99.90;;;;;;4950020;28;20024;-68
2021/11/25 01:59:22;;;;;;;67.85;27.63;;;7.40;99.90;;;;;;4956296;28;20027;-68
2021/11/25 02:01:48;;;;;;;70.50;27.60;;;7.40;99.90;;;;;;4949460;29;20035;-68
2021/11/25 02:04:13;;;;;;;67.15;27.90;;;7.40;99.90;;;;;;4957314;28;20023;-68
2021/11/25 02:06:40;;;;;;;69.47;27.42;;;7.50;99.90;;;;;;4956299;28;20035;-68
2021/11/25 02:09:06;;;;;;;62.30;26.40;;;7.40;99.90;;;;;;4956108;28;20125;-66
2021/11/25 02:11:32;;;;;;;62.15;25.27;;;7.40;99.90;;;;;;4956365;29;20477;-68
2021/11/25 02:13:58;;;;;;;68.50;29.67;;;7.50;99.90;;;;;;4954073;28;20035;-68
2021/11/25 02:16:23;;;;;;;73.32;28.45;;;7.40;99.90;;;;;;4957641;28;20027;-66
2021/11/25 02:18:49;;;;;;;67.32;25.60;;;7.40;99.90;;;;;;4974827;29;20062;-67
2021/11/25 02:21:15;;;;;;;65.22;27.25;;;7.40;99.90;;;;;;4975770;28;20054;-67
2021/11/25 02:23:41;;;;;;;62.50;26.75;;;7.40;99.90;;;;;;4975198;28;20035;-67
2021/11/25 02:26:07;;;;;;;69.38;30.40;;;7.50;99.90;;;;;;4973089;29;21127;-67
2021/11/25 02:28:35;;;;;;;64.53;26.75;;;7.50;99.90;;;;;;4976685;28;20027;-65
2021/11/25 02:31:02;;;;;;;66.30;26.52;;;7.40;99.90;;;;;;4977917;29;20023;-65
2021/11/25 02:33:27;;;;;;;62.90;29.17;;;7.50;99.90;;;;;;4975589;28;20059;-66
2021/11/25 02:35:53;;;;;;;69.80;29.85;;;7.40;99.90;;;;;;4975962;29;20061;-67
2021/11/25 02:38:19;;;;;;;71.75;29.65;;;7.40;99.90;;;;;;4972035;28;20023;-67
2021/11/25 02:40:48;;;;;;;67.53;27.98;;;7.40;99.90;;;;;;4974361;28;20039;-68
2021/11/25 02:43:19;;;;;;;69.13;27.33;;;7.40;99.90;;;;;;4970682;29;20039;-66
2021/11/25 02:45:53;;;;;;;69.82;28.00;;;7.40;99.90;;;;;;4976228;28;20039;-65
2021/11/25 02:48:25;;;;;;;68.82;28.15;;;7.40;99.90;;;;;;4988188;28;20039;-66
2021/11/25 02:50:53;;;;;;;66.18;27.63;;;7.40;99.90;;;;;;4975336;29;20674;-66
2021/11/25 02:53:27;;;;;;;69.43;28.98;;;7.40;99.90;;;;;;4978017;28;20027;-67
2021/11/25 02:55:57;;;;;;;62.60;27.13;;;7.40;99.90;;;;;;4976697;29;20023;-67
2021/11/25 02:58:23;;;;;;;75.40;30.00;;;7.40;99.90;;;;;;4976787;28;20034;-67
2021/11/25 03:00:51;;;;;;;67.82;27.83;;;7.40;99.90;;;;;;4976388;29;20042;-67
2021/11/25 03:03:17;;;;;;;77.60;30.90;;;7.40;99.90;;;;;;4976815;28;20051;-67
2021/11/25 03:05:45;;;;;;;80.57;31.55;;;7.40;99.90;;;;;;4969680;28;20023;-67
2021/11/25 03:08:12;;;;;;;75.68;29.85;;;7.40;99.90;;;;;;4976992;29;20051;-66
2021/11/25 03:10:44;;;;;;;73.28;29.90;;;7.40;99.90;;;;;;4964673;29;20536;-68
2021/11/25 03:13:12;;;;;;;81.15;31.67;;;7.40;99.90;;;;;;4977963;28;20027;-68
2021/11/25 03:15:40;;;;;;;81.75;30.35;;;7.40;99.90;;;;;;4957626;28;20031;-68
2021/11/25 03:18:06;;;;;;;82.63;31.58;;;7.40;99.90;;;;;;4948702;28;20030;-67
2021/11/25 03:20:32;;;;;;;81.32;31.67;;;7.40;99.90;;;;;;4954400;28;20208;-68
2021/11/25 03:22:58;;;;;;;83.63;32.10;;;7.40;99.90;;;;;;4954769;29;20126;-68
2021/11/25 03:25:24;;;;;;;79.20;31.83;;;7.40;99.90;;;;;;4954616;28;20568;-66
2021/11/25 03:27:51;;;;;;;82.88;30.85;;;7.40;99.90;;;;;;4955306;28;20440;-68
2021/11/25 03:30:17;;;;;;;89.18;34.22;;;7.40;99.90;;;;;;4954777;28;20082;-68
2021/11/25 03:32:42;;;;;;;81.78;30.63;;;7.40;99.90;;;;;;4954786;28;20039;-68
2021/11/25 03:35:09;;;;;;;77.35;29.92;;;7.40;99.90;;;;;;4954449;29;20058;-68
2021/11/25 03:37:35;;;;;;;81.88;32.00;;;7.40;99.90;;;;;;4951044;28;20019;-67
2021/11/25 03:40:03;;;;;;;71.25;31.40;;;7.40;99.90;;;;;;4954021;28;20119;-68
2021/11/25 03:42:28;;;;;;;90.07;33.08;;;7.30;99.90;;;;;;4954269;28;20473;-68
2021/11/25 03:44:54;;;;;;;83.13;33.20;;;7.30;99.90;;;;;;4949972;28;20042;-68
2021/11/25 03:47:19;;;;;;;82.10;30.75;;;7.20;99.90;;;;;;4952665;29;20114;-68
2021/11/25 03:49:45;;;;;;;76.28;32.72;;;7.20;99.90;;;;;;4954453;28;20031;-68
2021/11/25 03:52:11;;;;;;;85.13;34.33;;;7.20;99.90;;;;;;4953931;29;20036;-67
2021/11/25 03:54:37;;;;;;;85.85;32.28;;;7.20;99.90;;;;;;4953766;28;20066;-68
2021/11/25 03:57:02;;;;;;;80.88;31.45;;;7.30;99.90;;;;;;4954007;29;20034;-68
2021/11/25 03:59:28;;;;;;;91.72;33.63;;;7.20;99.90;;;;;;4953876;28;20436;-67
2021/11/25 04:01:53;;;;;;;78.72;32.28;;;7.20;99.90;;;;;;4953726;28;20473;-68
2021/11/25 04:04:19;;;;;;;85.53;31.88;;;7.20;99.90;;;;;;4953409;28;20027;-68
2021/11/25 04:06:44;;;;;;;86.70;32.17;;;7.10;99.90;;;;;;4965342;28;20028;-68
2021/11/25 04:09:11;;;;;;;79.70;33.67;;;7.10;99.90;;;;;;4953469;29;20162;-68
2021/11/25 04:11:37;;;;;;;83.88;32.47;;;7.10;99.90;;;;;;4953807;28;20053;-68
2021/11/25 04:14:03;;;;;;;81.53;32.25;;;7.10;99.90;;;;;;4953923;29;20443;-68
2021/11/25 04:16:30;;;;;;;92.88;35.25;;;7.10;99.90;;;;;;4967964;28;20070;-67
2021/11/25 04:18:56;;;;;;;74.18;32.70;;;7.10;99.90;;;;;;4967948;28;20034;-68
2021/11/25 04:21:22;;;;;;;77.93;33.85;;;7.10;99.90;;;;;;4953311;28;20137;-68
2021/11/25 04:23:48;;;;;;;82.47;32.92;;;7.10;99.90;;;;;;4953499;28;20031;-68
2021/11/25 04:26:14;;;;;;;84.78;33.72;;;7.10;99.90;;;;;;4953542;28;20054;-67
2021/11/25 04:28:40;;;;;;;86.57;35.88;;;7.10;99.90;;;;;;4953218;28;20035;-68
2021/11/25 04:36:33;;;;;;;79.88;34.67;;;7.00;99.90;;;;;;4951762;29;20500;-68
2021/11/25 04:38:59;;;;;;;77.13;30.85;;;7.00;99.90;;;;;;4951184;29;20027;-68
2021/11/25 04:41:25;;;;;;;87.40;33.13;;;7.00;99.90;;;;;;4952883;28;20024;-68
2021/11/25 04:43:50;;;;;;;79.00;32.97;;;7.00;99.90;;;;;;4952323;29;20507;-67
2021/11/25 04:46:16;;;;;;;85.75;33.10;;;7.00;99.90;;;;;;4949957;28;20054;-68
2021/11/25 04:48:42;;;;;;;85.55;34.20;;;7.00;99.90;;;;;;4952859;28;20031;-68
2021/11/25 04:51:07;;;;;;;82.93;34.88;;;7.00;99.90;;;;;;4952254;28;20066;-68
2021/11/25 04:53:33;;;;;;;79.63;33.38;;;7.00;99.90;;;;;;4952787;28;20027;-68
2021/11/25 04:55:59;;;;;;;82.15;34.15;;;7.00;99.90;;;;;;4952837;28;20393;-67
2021/11/25 04:58:24;;;;;;;85.38;35.35;;;7.00;99.90;;;;;;4952850;29;20023;-68
2021/11/25 05:00:50;;;;;;;85.85;34.35;;;7.10;99.90;;;;;;4952641;29;20035;-68
2021/11/25 05:03:15;;;;;;;78.72;31.63;;;7.10;99.90;;;;;;4952502;28;20396;-68
2021/11/25 05:05:42;;;;;;;77.57;31.35;;;7.10;99.90;;;;;;4952663;28;20066;-67
2021/11/25 05:08:08;;;;;;;84.38;33.10;;;7.10;99.90;;;;;;4952576;28;20031;-67
2021/11/25 05:10:33;;;;;;;79.75;33.05;;;7.10;99.90;;;;;;4952538;28;20051;-67
2021/11/25 05:12:59;;;;;;;80.45;34.25;;;7.10;99.90;;;;;;4952581;29;20030;-68
2021/11/25 05:15:24;;;;;;;87.22;32.35;;;7.00;99.90;;;;;;4952255;28;20023;-67
2021/11/25 05:17:51;;;;;;;86.40;34.50;;;7.00;99.90;;;;;;4952193;28;20024;-68
2021/11/25 05:20:17;;;;;;;77.25;31.73;;;7.00;99.90;;;;;;4952325;28;20497;-68
2021/11/25 05:22:43;;;;;;;74.85;31.48;;;7.00;99.90;;;;;;4952547;29;20019;-67
2021/11/25 05:25:11;;;;;;;90.05;35.38;;;7.00;99.90;;;;;;4952138;28;20077;-67
2021/11/25 05:27:36;;;;;;;82.72;33.40;;;7.00;99.90;;;;;;4951890;28;20016;-68
2021/11/25 05:30:05;;;;;;;84.22;31.90;;;7.10;99.90;;;;;;4952429;28;20106;-67
2021/11/25 05:32:30;;;;;;;80.75;32.30;;;7.00;99.90;;;;;;4951865;28;20015;-68
2021/11/25 05:34:56;;;;;;;87.60;32.30;;;7.00;99.90;;;;;;4951949;29;20480;-66
2021/11/25 05:37:22;;;;;;;81.53;32.33;;;7.00;99.90;;;;;;4948079;28;20469;-68
2021/11/25 05:39:47;;;;;;;77.93;30.00;;;7.00;99.90;;;;;;4946390;28;20103;-68
2021/11/25 05:42:13;;;;;;;86.78;29.80;;;6.90;99.90;;;;;;4951618;28;20470;-68
2021/11/25 05:44:39;;;;;;;82.00;30.98;;;6.90;99.90;;;;;;4946345;29;20086;-67
2021/11/25 05:47:05;;;;;;;89.30;33.75;;;6.90;99.90;;;;;;4949101;28;20100;-66
2021/11/25 05:49:31;;;;;;;91.55;33.28;;;6.90;99.90;;;;;;4951674;28;20477;-68
2021/11/25 05:51:56;;;;;;;89.20;33.47;;;6.90;99.90;;;;;;4945506;29;20074;-67
2021/11/25 05:54:22;;;;;;;88.57;34.65;;;6.90;99.90;;;;;;4952554;28;20086;-67
2021/11/25 05:56:48;;;;;;;89.03;35.00;;;6.90;99.90;;;;;;4947337;29;20458;-67
2021/11/25 05:59:14;;;;;;;88.40;32.65;;;6.90;99.90;;;;;;4951951;29;20015;-67
2021/11/25 06:01:39;;;;;;;90.55;33.58;;;6.90;99.90;;;;;;4948545;28;20044;-67
2021/11/25 06:04:05;;;;;;;89.28;34.13;;;6.90;99.90;;;;;;4953608;29;20020;-67
2021/11/25 06:06:30;;;;;;;87.53;34.00;;;6.90;99.90;;;;;;4955589;28;20081;-67
2021/11/25 06:08:56;;;;;;;96.35;33.63;;;6.90;99.90;;;;;;4953937;29;20115;-67
2021/11/25 06:11:22;;;;;;;103.68;34.85;;;7.00;99.90;;;;;;4955062;28;20419;-67
2021/11/25 06:13:47;;;;;;;90.78;34.13;;;7.00;99.90;;;;;;4948790;28;20126;-68
2021/11/25 06:16:13;;;;;;;103.13;34.88;;;7.00;99.90;;;;;;4955316;28;20114;-67
2021/11/25 06:18:39;;;;;;;95.90;33.58;;;7.00;99.90;;;;;;4946706;28;20030;-67
2021/11/25 06:21:05;;;;;;;95.38;31.83;;;7.00;99.90;;;;;;4948166;29;20043;-67
2021/11/25 06:23:31;;;;;;;88.30;34.65;;;7.00;99.90;;;;;;4950692;28;20055;-67
2021/11/25 06:25:56;;;;;;;91.60;34.53;;;7.00;99.90;;;;;;4949692;28;20034;-67
2021/11/25 06:28:22;;;;;;;98.30;34.90;;;7.00;99.90;;;;;;4955077;28;20042;-68
2021/11/25 06:30:47;;;;;;;86.78;33.45;;;7.00;99.90;;;;;;4954127;29;20122;-67
2021/11/25 06:33:13;;;;;;;93.70;34.08;;;7.00;99.90;;;;;;4951175;28;20023;-66
2021/11/25 06:35:38;;;;;;;99.60;33.72;;;7.00;99.90;;;;;;4949763;29;20059;-67
2021/11/25 06:38:04;;;;;;;92.40;33.25;;;7.10;99.90;;;;;;4951027;28;20027;-66
2021/11/25 06:40:33;;;;;;;100.97;37.40;;;7.10;99.90;;;;;;4950539;29;20031;-66
2021/11/25 06:43:00;;;;;;;89.97;34.50;;;7.00;99.90;;;;;;4951745;29;20062;-68
2021/11/25 06:45:26;;;;;;;86.68;34.78;;;7.00;99.90;;;;;;4952256;29;20031;-67
2021/11/25 06:47:53;;;;;;;109.95;37.03;;;7.00;99.90;;;;;;4951067;28;20039;-67
2021/11/25 06:50:22;;;;;;;96.90;37.63;;;7.00;99.90;;;;;;4955598;28;20037;-68
2021/11/25 06:52:48;;;;;;;96.05;34.05;;;7.00;99.90;;;;;;4955438;28;20108;-67
2021/11/25 06:55:14;;;;;;;94.45;35.78;;;7.00;99.90;;;;;;4954542;28;20457;-67
2021/11/25 06:57:40;;;;;;;93.18;34.78;;;7.00;99.90;;;;;;4955208;28;20026;-67
2021/11/25 07:00:11;;;;;;;96.38;32.58;;;7.10;99.90;;;;;;4969704;28;20023;-67
2021/11/25 07:02:37;;;;;;;95.68;32.83;;;7.00;99.90;;;;;;4953448;28;20075;-68
2021/11/25 07:05:05;;;;;;;94.05;35.83;;;7.10;99.90;;;;;;4954933;28;20027;-67
2021/11/25 07:07:31;;;;;;;92.43;35.80;;;7.10;99.90;;;;;;4954834;28;20062;-67
2021/11/25 07:09:57;;;;;;;104.82;34.95;;;7.10;99.90;;;;;;4954455;29;20023;-67
2021/11/25 07:12:22;;;;;;;92.00;33.45;;;7.10;99.90;;;;;;4954756;28;20365;-67
2021/11/25 07:14:48;;;;;;;93.00;36.05;;;7.10;99.90;;;;;;4954156;28;20019;-67
2021/11/25 07:17:14;;;;;;;93.78;31.63;;;7.10;99.90;;;;;;4954201;29;20031;-69
2021/11/25 07:19:40;;;;;;;93.85;34.25;;;7.10;99.90;;;;;;4954826;28;20061;-67
2021/11/25 07:22:05;;;;;;;91.93;32.53;;;7.10;99.90;;;;;;4954414;28;20042;-67
2021/11/25 07:24:31;;;;;;;94.80;33.63;;;7.20;99.90;;;;;;4944230;28;20410;-67
2021/11/25 07:26:57;;;;;;;95.45;32.97;;;7.10;99.90;;;;;;4936884;28;20071;-67
2021/11/25 07:29:23;;;;;;;86.32;32.55;;;7.20;99.90;;;;;;4938573;28;20388;-67
2021/11/25 07:31:49;;;;;;;91.18;34.30;;;7.20;99.90;;;;;;4938377;28;20040;-67
2021/11/25 07:34:14;;;;;;;82.70;31.58;;;7.20;99.90;;;;;;4941991;28;20437;-67
2021/11/25 07:36:40;;;;;;;90.22;32.05;;;7.20;99.90;;;;;;4939676;28;20024;-67
2021/11/25 07:39:06;;;;;;;80.72;30.38;;;7.30;99.90;;;;;;4938357;28;20031;-68
2021/11/25 07:41:31;;;;;;;93.68;30.98;;;7.30;99.90;;;;;;4940404;28;20011;-67
2021/11/25 07:43:57;;;;;;;84.22;28.00;;;7.30;99.90;;;;;;4941578;28;20024;-68
2021/11/25 07:46:23;;;;;;;79.40;26.98;;;7.30;99.90;;;;;;4938377;28;20043;-67
2021/11/25 07:48:48;;;;;;;76.13;29.75;;;7.40;99.90;;;;;;4942895;28;20019;-67
2021/11/25 07:51:14;;;;;;;78.47;27.30;;;7.40;99.90;;;;;;4942640;28;20446;-66
2021/11/25 07:53:40;;;;;;;75.93;27.70;;;7.40;99.90;;;;;;4939517;28;20560;-67
2021/11/25 07:56:05;;;;;;;88.15;28.52;;;7.50;99.90;;;;;;4937816;28;20139;-67
2021/11/25 07:58:31;;;;;;;76.95;26.02;;;7.50;99.90;;;;;;4942051;28;20020;-68
2021/11/25 08:00:57;;;;;;;79.68;24.98;;;7.50;99.90;;;;;;4941270;28;20026;-67
2021/11/25 08:03:24;;;;;;;68.38;21.83;;;7.50;99.90;;;;;;4943209;28;20023;-67
2021/11/25 08:05:50;;;;;;;62.05;20.40;;;7.50;99.90;;;;;;4949241;28;20034;-67
2021/11/25 08:08:16;;;;;;;54.38;17.20;;;7.50;99.90;;;;;;4946318;28;20106;-66
2021/11/25 08:10:42;;;;;;;47.80;18.60;;;7.60;99.90;;;;;;4943744;28;20024;-68
2021/11/25 08:13:08;;;;;;;39.63;15.02;;;7.60;99.90;;;;;;4948958;28;20062;-67
2021/11/25 08:15:34;;;;;;;37.72;13.25;;;7.60;99.90;;;;;;4937883;28;20035;-67
2021/11/25 08:18:00;;;;;;;41.72;15.70;;;7.70;99.90;;;;;;4943361;28;20098;-67
2021/11/25 08:20:26;;;;;;;33.17;11.15;;;7.70;99.90;;;;;;4952562;28;20019;-68
2021/11/25 08:22:53;;;;;;;34.70;10.18;;;7.70;99.90;;;;;;4958195;28;20058;-68
2021/11/25 08:25:21;;;;;;;22.52;8.25;;;7.70;99.90;;;;;;4964726;28;20101;-68
2021/11/25 08:27:46;;;;;;;22.20;8.25;;;7.80;99.90;;;;;;4959841;28;20026;-68
2021/11/25 08:30:14;;;;;;;23.27;7.35;;;7.80;99.90;;;;;;4958958;28;20073;-67
2021/11/25 08:32:40;;;;;;;23.70;6.38;;;7.80;99.90;;;;;;4958688;28;20085;-68
2021/11/25 08:35:06;;;;;;;23.92;11.00;;;7.90;99.90;;;;;;4960767;28;20078;-68
2021/11/25 08:37:33;;;;;;;22.27;5.72;;;7.90;99.90;;;;;;4966754;28;20029;-68
2021/11/25 08:39:59;;;;;;;17.05;5.00;;;7.90;99.90;;;;;;4967413;28;20050;-68
2021/11/25 08:42:24;;;;;;;10.82;4.10;;;7.90;99.90;;;;;;4968837;28;20100;-69
2021/11/25 08:44:50;;;;;;;13.65;4.40;;;8.00;99.90;;;;;;4968586;28;20834;-68
2021/11/25 08:47:16;;;;;;;12.05;3.22;;;8.00;99.90;;;;;;4964243;28;20141;-68
2021/11/25 08:49:42;;;;;;;13.00;2.97;;;8.00;99.90;;;;;;4968365;28;20023;-69
2021/11/25 08:52:07;;;;;;;10.18;3.17;;;8.00;99.90;;;;;;4968623;28;20674;-69
2021/11/25 08:54:33;;;;;;;11.65;2.83;;;8.00;99.90;;;;;;4968458;28;20031;-68
2021/11/25 08:56:59;;;;;;;11.77;3.03;;;8.00;99.90;;;;;;4963458;28;20530;-68
2021/11/25 08:59:24;;;;;;;9.45;3.13;;;8.10;99.90;;;;;;4968779;28;20031;-68
2021/11/25 09:01:50;;;;;;;12.68;4.57;;;8.10;99.90;;;;;;4958009;28;20522;-69
2021/11/25 09:04:16;;;;;;;11.85;2.50;;;8.10;99.90;;;;;;4968518;28;20015;-68
2021/11/25 09:06:42;;;;;;;8.88;3.22;;;8.10;99.90;;;;;;4981892;28;20029;-69
2021/11/25 09:09:09;;;;;;;14.10;3.58;;;8.20;99.90;;;;;;4967310;28;20837;-69
2021/11/25 09:11:35;;;;;;;14.77;3.38;;;8.20;99.90;;;;;;4968258;28;20030;-68
2021/11/25 09:14:01;;;;;;;11.18;3.45;;;8.20;99.90;;;;;;4973309;28;20037;-69
2021/11/25 09:16:27;;;;;;;9.55;3.15;;;8.30;99.90;;;;;;4968248;28;20106;-69
2021/11/25 09:18:52;;;;;;;9.07;2.60;;;8.30;99.90;;;;;;4967311;28;20102;-69
2021/11/25 09:21:21;;;;;;;15.18;3.30;;;8.30;99.90;;;;;;4962067;28;20034;-68
2021/11/25 09:23:47;;;;;;;8.07;2.50;;;8.40;99.90;;;;;;4962184;28;20392;-69
2021/11/25 09:26:13;;;;;;;8.15;2.38;;;8.40;99.90;;;;;;4954689;28;20031;-68
2021/11/25 09:28:38;;;;;;;13.38;2.42;;;8.40;99.90;;;;;;4957587;28;20122;-68
2021/11/25 09:31:04;;;;;;;8.77;2.10;;;8.40;99.90;;;;;;4964255;28;20413;-68
2021/11/25 09:33:29;;;;;;;12.68;2.72;;;8.40;99.90;;;;;;4968320;28;20031;-69
2021/11/25 09:35:55;;;;;;;11.25;2.15;;;8.40;99.90;;;;;;4964890;28;20041;-69
2021/11/25 09:38:20;;;;;;;8.40;2.22;;;8.50;99.90;;;;;;4982912;28;20014;-68
2021/11/25 09:40:48;;;;;;;7.05;2.60;;;8.50;99.90;;;;;;4964300;28;20440;-68
2021/11/25 09:43:20;;;;;;;14.60;3.13;;;8.60;99.90;;;;;;4959860;28;20018;-69
2021/11/25 09:45:49;;;;;;;9.68;3.10;;;8.60;99.90;;;;;;4963765;28;20049;-68
2021/11/25 09:48:15;;;;;;;12.30;4.15;;;8.70;99.90;;;;;;4967502;28;20066;-68
2021/11/25 09:50:44;;;;;;;8.88;2.97;;;8.80;99.90;;;;;;4970931;28;20054;-68
2021/11/25 09:53:13;;;;;;;11.15;2.58;;;8.90;99.90;;;;;;4970170;28;20362;-68
2021/11/25 09:55:42;;;;;;;13.63;2.95;;;9.10;99.90;;;;;;4968006;28;20037;-68
2021/11/25 09:58:12;;;;;;;14.75;3.42;;;9.20;99.90;;;;;;4967612;28;20031;-69
2021/11/25 10:00:46;;;;;;;19.63;3.47;;;9.60;99.90;;;;;;4970675;28;20031;-69
2021/11/25 10:03:15;;;;;;;11.55;3.22;;;9.90;99.90;;;;;;4968617;28;20387;-69
2021/11/25 10:05:44;;;;;;;6.78;1.85;;;10.30;99.90;;;;;;4970597;28;20022;-69
2021/11/25 10:08:26;;;;;;;6.90;1.63;;;10.70;99.90;;;;;;4965203;28;20031;-70
2021/11/25 10:11:06;;;;;;;16.67;3.35;;;11.00;99.90;;;;;;4970281;28;20031;-69
2021/11/25 10:13:41;;;;;;;6.05;1.50;;;11.20;99.90;;;;;;4968723;28;20468;-69
2021/11/25 10:16:11;;;;;;;8.75;1.83;;;11.30;99.90;;;;;;4969530;28;20034;-69
2021/11/25 10:18:37;;;;;;;5.85;1.88;;;11.50;99.90;;;;;;4985942;28;20424;-70
2021/11/25 10:21:07;;;;;;;10.18;1.75;;;11.80;99.90;;;;;;4963369;28;20069;-69
2021/11/25 10:23:33;;;;;;;;;;;11.90;99.90;;;;;;4955825;28;20019;-68
2021/11/25 10:26:07;;;;;;;7.40;0.88;;;11.90;99.90;;;;;;4956984;28;19910;-69
2021/11/25 10:28:47;;;;;;;5.40;0.85;;;11.90;99.90;;;;;;4954906;28;20020;-69
2021/11/25 10:31:20;;;;;;;11.15;1.20;;;11.80;99.90;;;;;;4960540;28;20027;-71
2021/11/25 10:34:23;;;;;;;8.27;1.60;;;11.70;99.90;;;;;;4966421;28;20113;-70
2021/11/25 10:42:08;;;;;;;8.50;0.70;;;11.40;99.90;;;;;;4962936;28;20038;-69
2021/11/25 10:44:35;;;;;;;10.98;1.33;;;11.40;99.90;;;;;;4959270;28;20369;-69
2021/11/25 10:47:07;;;;;;;6.60;0.75;;;11.30;99.90;;;;;;4961659;28;20039;-69
2021/11/25 10:49:37;;;;;;;14.10;1.27;;;11.20;99.90;;;;;;4962779;28;20026;-68
2021/11/25 10:52:14;;;;;;;5.80;0.60;;;11.10;99.90;;;;;;4959250;28;20027;-68
2021/11/25 10:54:46;;;;;;;6.15;0.73;;;11.00;99.90;;;;;;4956642;28;20571;-68
2021/11/25 10:57:11;;;;;;;3.13;0.55;;;10.80;99.90;;;;;;4968446;28;20027;-68
2021/11/25 10:59:49;;;;;;;9.00;0.95;;;10.70;99.90;;;;;;4952785;28;20504;-68
2021/11/25 11:02:32;;;;;;;6.18;0.52;;;10.60;99.90;;;;;;4959987;28;20141;-69
2021/11/25 11:05:01;;;;;;;4.28;0.47;;;10.50;99.90;;;;;;4984476;28;20058;-69
2021/11/25 11:07:31;;;;;;;5.43;0.80;;;10.40;99.90;;;;;;4974942;28;20054;-69
2021/11/25 11:09:57;;;;;;;;;;;10.30;99.90;;;;;;4958286;28;20035;-68
2021/11/25 11:12:35;;;;;;;9.65;0.80;;;10.20;99.90;;;;;;4959708;28;19910;-69
2021/11/25 11:15:27;;;;;;;10.13;1.00;;;10.20;99.90;;;;;;4968864;28;20030;-69
2021/11/25 11:20:40;;;;;;;10.85;2.03;;;10.10;99.90;;;;;;4961300;28;20235;-70
2021/11/25 11:23:07;;;;;;;8.52;1.40;;;10.20;99.90;;;;;;4961165;28;20532;-70
2021/11/25 11:25:34;;;;;;;8.13;0.73;;;10.20;99.90;;;;;;4958623;28;20027;-70
2021/11/25 11:28:02;;;;;;;7.93;1.17;;;10.20;99.90;;;;;;4957754;28;20058;-70
2021/11/25 11:30:28;;;;;;;6.47;0.80;;;10.20;99.90;;;;;;4962241;28;20019;-70
2021/11/25 11:32:55;;;;;;;8.75;0.95;;;10.20;99.90;;;;;;4956733;28;20035;-70
2021/11/25 11:35:24;;;;;;;4.82;0.85;;;10.30;99.90;;;;;;4958056;28;20042;-70
2021/11/25 11:37:52;;;;;;;10.77;1.60;;;10.30;99.90;;;;;;4962252;28;20031;-70
2021/11/25 11:40:18;;;;;;;7.63;2.30;;;10.40;99.90;;;;;;4961999;28;20058;-70
2021/11/25 11:42:43;;;;;;;8.25;1.00;;;10.50;99.90;;;;;;4956591;28;20098;-70
2021/11/25 11:45:10;;;;;;;8.63;0.88;;;10.50;99.90;;;;;;4956956;28;20109;-69
2021/11/25 11:47:36;;;;;;;9.13;1.15;;;10.60;99.90;;;;;;4961358;28;20576;-70
2021/11/25 11:50:07;;;;;;;10.30;1.95;;;10.60;99.90;;;;;;4967397;28;20429;-69
2021/11/25 11:52:33;;;;;;;9.63;1.20;;;10.60;99.90;;;;;;4966345;28;20031;-69
2021/11/25 11:55:01;;;;;;;7.63;1.90;;;10.60;99.90;;;;;;4969292;28;20019;-70
2021/11/25 11:57:38;;;;;;;5.93;0.68;;;10.60;99.90;;;;;;4968555;28;20026;-70
2021/11/25 12:00:28;;;;;;;5.57;0.95;;;10.70;99.90;;;;;;4966952;28;20041;-70
2021/11/25 12:02:56;;;;;;;10.73;1.70;;;10.70;99.90;;;;;;4964242;28;20039;-70
2021/11/25 12:05:46;;;;;;;7.53;0.63;;;10.80;99.90;;;;;;4968838;28;20018;-70
2021/11/25 12:08:21;;;;;;;3.60;0.90;;;10.80;99.90;;;;;;4964320;28;20451;-70
2021/11/25 12:10:55;;;;;;;8.15;1.48;;;10.80;99.90;;;;;;4994443;23;20048;-71
2021/11/25 12:13:24;;;;;;;6.35;0.55;;;10.80;99.90;;;;;;4982631;28;20423;-71
2021/11/25 12:15:49;;;;;;;5.95;0.77;;;10.80;99.90;;;;;;4982323;28;20070;-70
2021/11/25 12:18:32;;;;;;;6.95;1.25;;;10.90;99.90;;;;;;4978825;28;20066;-71
2021/11/25 12:20:59;;;;;;;10.05;1.60;;;11.00;99.90;;;;;;4971700;28;20031;-71
2021/11/25 12:23:32;;;;;;;4.63;0.45;;;11.00;99.90;;;;;;4959020;28;20486;-71
2021/11/25 12:25:57;;;;;;;9.32;1.23;;;11.00;99.90;;;;;;4967852;28;20133;-71
2021/11/25 12:28:28;;;;;;;7.97;1.60;;;11.00;99.90;;;;;;4961961;28;20547;-71
2021/11/25 12:33:50;;;;;;;6.50;1.45;;;11.20;99.90;;;;;;4970291;28;20823;-71
2021/11/25 12:36:39;;;;;;;10.80;1.73;;;11.20;99.90;;;;;;4960737;28;20041;-71
2021/11/25 12:39:26;;;;;;;5.53;0.85;;;11.20;99.90;;;;;;4966534;28;20093;-71
2021/11/25 12:41:51;;;;;;;8.77;1.42;;;11.10;99.90;;;;;;4970447;28;20058;-71
2021/11/25 12:44:17;;;;;;;5.90;0.52;;;11.10;99.90;;;;;;4966285;28;20432;-71
2021/11/25 12:46:43;;;;;;;8.73;0.90;;;11.10;99.90;;;;;;4968007;28;20030;-71
2021/11/25 12:49:16;;;;;;;5.45;0.70;;;11.00;99.90;;;;;;4966891;28;20035;-71
2021/11/25 12:51:42;;;;;;;8.35;0.90;;;11.00;99.90;;;;;;4968276;28;20029;-71
2021/11/25 12:54:13;;;;;;;10.65;2.08;;;11.00;99.90;;;;;;4961405;28;20022;-71
2021/11/25 12:56:40;;;;;;;3.88;0.90;;;11.00;99.90;;;;;;4983364;28;20022;-71